Aérodrome :
LOGIN :

S'inscrire | Disclaimer

   EN    FR    IT 

 










Légende :    VFR   VFR Marginal   IFR   IFR Intensif   IFR Très Intensif
Visi : 
Plafond : 
>= 8 km
>= 3000ft
5 à 8 km
1000 à 3000 ft
1500m à 5 km
500 à 1000 ft
800 à 1500m
200 à 500 ft
< 800m
< 200 ft
Symboles :   Orages  Brouillard  Fortes neiges  Fortes précipitations  Vent > 20 kt
SIGMETs :   Divers  Orages  Givrage  Turbulence  Onde Orograph.  Cendres Volcan.







- Altitude de l'aérodrome : 12 ft
- Code IATA : NCE
- Voir les cartes d'approche


LFMN - Nice

DERNIER METAR :
  • 251000Z 16003KT 9999 BKN030 19/15 Q1018 NOSIG

METARs EXPIRÉS :
  • 250930Z 19003KT 9999 FEW015 BKN030 18/14 Q1019 NOSIG
  • 250900Z VRB02KT 9999 FEW015 BKN031 18/14 Q1018 NOSIG
  • 250830Z VRB02KT 9999 FEW015 BKN031 18/14 Q1018 NOSIG
  • 250800Z VRB02KT 9999 BKN033 18/14 Q1018 NOSIG
  • 250730Z 31003KT 260V340 9999 BKN032 18/13 Q1018 NOSIG

TAF TAF LFMN
Valide du 25 à 09h jusqu'au 26 à 15h UTC


250800Z 2509/2615 10008KT 9999 BKN030
BECMG 2518/2520 VRB03KT BKN014
BECMG 2607/2609 18005KT BKN020
ATIS : +33 4 93 17 21 16
Pas de NOTAMs connus pour ce terrain.



MET'MAP, la Météo Aéronautique d'un coup d'oeil ! - Copyright ORBIFLY Décembre 2007 - Disclaimer

ORBIFLY MET'MAP TEAM :

Programmation & Développement : Alexandra Zaïnal
Conception & Développement : Baudouin d'Aumeries
Co-Programmation & Développement : Marc-Olivier Méhu
Soutien technique & logistique : Manuel Goepfert

Contact : metmap@orbifly.com




SOURCES & CREDITS :

   NOAA